Time;durP1;ratioP1;P1;durP2;ratioP2;P2;SDS_P1;SDS_P2;PMS_P1;PMS_P2;Temp;Humidity;BMP_temperature;BMP_pressure;BME280_temperature;BME280_humidity;BME280_pressure;Samples;Min_cycle;Max_cycle;Signal;HPM_P1;HPM_P2
2021/11/20 00:01:38;;;;;;;25.90;18.60;;;8.10;99.90;;;;;;5035622;28;20449;-88
2021/11/20 00:04:06;;;;;;;21.00;17.00;;;8.10;99.90;;;;;;5040293;28;20516;-87
2021/11/20 00:06:35;;;;;;;24.37;19.60;;;8.10;99.90;;;;;;5040938;28;20548;-87
2021/11/20 00:09:03;;;;;;;25.93;18.90;;;8.20;99.90;;;;;;5036288;28;21031;-88
2021/11/20 00:11:32;;;;;;;25.63;19.27;;;8.20;99.90;;;;;;5057767;28;20445;-87
2021/11/20 00:14:00;;;;;;;25.63;20.63;;;8.20;99.90;;;;;;5055495;28;20444;-87
2021/11/20 00:16:27;;;;;;;29.67;20.83;;;8.10;99.90;;;;;;5051805;28;20471;-86
2021/11/20 00:18:55;;;;;;;28.73;19.17;;;8.20;99.90;;;;;;5053206;28;20444;-88
2021/11/20 00:21:26;;;;;;;23.67;18.60;;;8.20;99.90;;;;;;5035079;28;20445;-87
2021/11/20 00:23:57;;;;;;;24.73;18.77;;;8.10;99.90;;;;;;5035895;28;20938;-87
2021/11/20 00:26:33;;;;;;;26.13;18.00;;;8.10;99.90;;;;;;5063195;28;20478;-87
2021/11/20 00:29:18;;;;;;;24.73;17.43;;;8.20;99.90;;;;;;5057167;28;20460;-87
2021/11/20 00:31:47;;;;;;;25.00;19.73;;;8.20;99.90;;;;;;5035982;28;20456;-87
2021/11/20 00:34:17;;;;;;;27.40;18.80;;;8.20;99.90;;;;;;5065071;28;20452;-87
2021/11/20 00:36:45;;;;;;;26.00;17.73;;;8.20;99.90;;;;;;5055306;28;20528;-87
2021/11/20 00:39:14;;;;;;;26.30;17.90;;;8.20;99.90;;;;;;5044629;28;20456;-87
2021/11/20 00:41:41;;;;;;;24.60;19.67;;;8.10;99.90;;;;;;5048316;28;20968;-87
2021/11/20 00:44:08;;;;;;;26.13;18.13;;;8.20;99.90;;;;;;5055606;28;20444;-87
2021/11/20 00:46:36;;;;;;;25.13;19.07;;;8.10;99.90;;;;;;5041146;28;20473;-87
2021/11/20 00:49:06;;;;;;;26.53;20.57;;;8.20;99.90;;;;;;5035318;28;20450;-87
2021/11/20 00:51:34;;;;;;;26.03;18.50;;;8.20;99.90;;;;;;5051087;28;20882;-87
2021/11/20 00:54:03;;;;;;;24.40;18.30;;;8.20;99.90;;;;;;5051656;28;20437;-87
2021/11/20 00:56:31;;;;;;;24.63;18.17;;;8.10;99.90;;;;;;5036029;28;20465;-87
2021/11/20 00:58:58;;;;;;;24.57;17.23;;;8.10;99.90;;;;;;5054783;28;20452;-88
2021/11/20 01:01:29;;;;;;;27.30;20.27;;;8.20;99.90;;;;;;5063619;28;20448;-87
2021/11/20 01:03:56;;;;;;;23.73;19.23;;;8.20;99.90;;;;;;5067397;28;20464;-86
2021/11/20 01:06:25;;;;;;;26.23;20.40;;;8.20;99.90;;;;;;5042413;28;20492;-87
2021/11/20 01:08:54;;;;;;;24.27;18.67;;;8.20;99.90;;;;;;5051317;28;20452;-87
2021/11/20 01:11:24;;;;;;;27.97;19.43;;;8.20;99.90;;;;;;5047513;28;20455;-87
2021/11/20 01:13:53;;;;;;;24.60;18.20;;;8.20;99.90;;;;;;5052665;28;20444;-87
2021/11/20 01:16:21;;;;;;;25.70;20.43;;;8.10;99.90;;;;;;5040214;28;20473;-87
2021/11/20 01:18:48;;;;;;;25.50;19.03;;;8.10;99.90;;;;;;5033035;28;20453;-87
2021/11/20 01:21:15;;;;;;;28.30;19.93;;;8.10;99.90;;;;;;5053004;28;20451;-87
2021/11/20 01:23:44;;;;;;;24.53;18.33;;;8.10;99.90;;;;;;5036178;28;20445;-87
2021/11/20 01:26:12;;;;;;;25.20;19.30;;;8.10;99.90;;;;;;5044068;28;20484;-87
2021/11/20 01:28:43;;;;;;;25.47;19.23;;;8.20;99.90;;;;;;5041018;28;20839;-87
2021/11/20 01:31:13;;;;;;;21.83;17.63;;;8.20;99.90;;;;;;5034415;28;20449;-87
2021/11/20 01:33:41;;;;;;;26.80;19.53;;;8.10;99.90;;;;;;5044149;28;20910;-87
2021/11/20 01:36:09;;;;;;;25.43;19.40;;;8.10;99.90;;;;;;5053411;28;20484;-87
2021/11/20 01:38:54;;;;;;;24.70;19.10;;;8.10;99.90;;;;;;5045184;28;20456;-87
2021/11/20 01:41:22;;;;;;;27.53;19.70;;;8.10;99.90;;;;;;5052242;28;20458;-87
2021/11/20 01:43:54;;;;;;;23.60;17.30;;;8.10;99.90;;;;;;5056236;28;20455;-87
2021/11/20 01:46:26;;;;;;;24.83;18.80;;;8.10;99.90;;;;;;5043496;28;21004;-87
2021/11/20 01:49:08;;;;;;;23.97;19.17;;;8.10;99.90;;;;;;5033898;28;20479;-88
2021/11/20 01:51:39;;;;;;;26.53;19.97;;;8.10;99.90;;;;;;5034744;28;20449;-88
2021/11/20 01:54:42;;;;;;;26.90;19.67;;;8.10;99.90;;;;;;5055650;28;20414;-89
2021/11/20 01:57:24;;;;;;;23.67;18.20;;;8.20;99.90;;;;;;5015807;28;20490;-86
2021/11/20 02:00:07;;;;;;;23.70;17.80;;;8.20;99.90;;;;;;5016132;28;20506;-88
2021/11/20 02:02:40;;;;;;;23.47;17.50;;;8.10;99.90;;;;;;5023171;28;20449;-88
2021/11/20 02:05:13;;;;;;;28.70;20.63;;;8.10;99.90;;;;;;5037256;28;20488;-88
2021/11/20 02:07:52;;;;;;;26.80;18.03;;;8.10;99.90;;;;;;5056196;28;20937;-87
2021/11/20 02:10:24;;;;;;;24.87;19.63;;;8.10;99.90;;;;;;5054680;28;20439;-88
2021/11/20 02:12:54;;;;;;;26.10;19.23;;;8.10;99.90;;;;;;5055763;28;20440;-88
2021/11/20 02:15:26;;;;;;;23.20;18.77;;;8.10;99.90;;;;;;5055214;28;20475;-88
2021/11/20 02:17:55;;;;;;;25.10;18.30;;;8.10;99.90;;;;;;5047656;28;20445;-89
2021/11/20 02:20:26;;;;;;;25.97;18.63;;;8.10;99.90;;;;;;5050920;28;20449;-87
2021/11/20 02:22:53;;;;;;;23.50;17.23;;;8.00;99.90;;;;;;5047112;28;20437;-88
2021/11/20 02:25:21;;;;;;;24.20;19.63;;;8.10;99.90;;;;;;5043254;28;20496;-89
2021/11/20 02:27:51;;;;;;;20.40;17.17;;;8.10;99.90;;;;;;5038762;28;20457;-89
2021/11/20 02:30:24;;;;;;;26.90;19.10;;;8.10;99.90;;;;;;5064296;28;20495;-88
2021/11/20 02:32:54;;;;;;;24.83;18.83;;;8.10;99.90;;;;;;5052808;28;20461;-88
2021/11/20 02:35:27;;;;;;;26.40;21.07;;;8.10;99.90;;;;;;5039622;28;20461;-88
2021/11/20 02:37:54;;;;;;;24.20;18.60;;;8.10;99.90;;;;;;5044189;28;20444;-87
2021/11/20 02:40:21;;;;;;;24.83;17.93;;;8.10;99.90;;;;;;5059388;28;20452;-88
2021/11/20 02:42:50;;;;;;;24.63;19.53;;;8.00;99.90;;;;;;5055074;28;20437;-87
2021/11/20 02:45:24;;;;;;;27.60;20.00;;;8.00;99.90;;;;;;5063019;28;20490;-87
2021/11/20 02:47:52;;;;;;;25.30;19.30;;;8.00;99.90;;;;;;5048325;28;20445;-87
2021/11/20 02:50:28;;;;;;;25.00;18.90;;;8.10;99.90;;;;;;5041954;28;20448;-87
2021/11/20 02:52:55;;;;;;;23.60;17.53;;;8.10;99.90;;;;;;5056985;28;20834;-88
2021/11/20 02:55:22;;;;;;;23.90;18.07;;;8.10;99.90;;;;;;5051215;28;20815;-88
2021/11/20 02:57:49;;;;;;;24.97;19.17;;;8.00;99.90;;;;;;5044750;28;20463;-88
2021/11/20 03:00:19;;;;;;;21.63;17.00;;;8.00;99.90;;;;;;5041396;28;20511;-88
2021/11/20 03:02:48;;;;;;;25.90;19.90;;;8.10;99.90;;;;;;5035437;28;20472;-88
2021/11/20 03:05:16;;;;;;;23.87;16.80;;;8.00;99.90;;;;;;5035652;28;20492;-88
2021/11/20 03:07:42;;;;;;;25.53;17.93;;;8.00;99.90;;;;;;5043781;28;20449;-87
2021/11/20 03:10:10;;;;;;;22.83;17.93;;;8.00;99.90;;;;;;5048506;28;20449;-88
2021/11/20 03:12:38;;;;;;;24.53;17.50;;;8.00;99.90;;;;;;5055588;28;20440;-86
2021/11/20 03:15:07;;;;;;;26.70;18.63;;;7.90;99.90;;;;;;5040072;28;20471;-88
2021/11/20 03:17:34;;;;;;;24.13;18.60;;;7.90;99.90;;;;;;5035221;28;20459;-88
2021/11/20 03:20:04;;;;;;;23.10;17.60;;;7.90;99.90;;;;;;5048919;28;20441;-88
2021/11/20 03:22:33;;;;;;;29.40;20.60;;;7.90;99.90;;;;;;5068041;28;20433;-88
2021/11/20 03:25:01;;;;;;;25.83;19.13;;;7.90;99.90;;;;;;5042175;28;20472;-88
2021/11/20 03:27:28;;;;;;;24.53;18.80;;;7.90;99.90;;;;;;5040852;28;20829;-88
2021/11/20 03:29:54;;;;;;;26.50;18.23;;;8.00;99.90;;;;;;5056005;28;20444;-89
2021/11/20 03:32:22;;;;;;;23.67;19.23;;;8.00;99.90;;;;;;5058891;28;20451;-88
2021/11/20 03:34:49;;;;;;;22.10;16.60;;;7.90;99.90;;;;;;5066521;28;20436;-87
2021/11/20 03:37:22;;;;;;;22.67;17.40;;;8.00;99.90;;;;;;5059966;28;20959;-88
2021/11/20 03:39:49;;;;;;;30.20;19.20;;;7.90;99.90;;;;;;5037638;28;20453;-88
2021/11/20 03:42:16;;;;;;;23.63;18.43;;;7.90;99.90;;;;;;5035360;28;20798;-87
2021/11/20 03:44:43;;;;;;;23.83;17.27;;;7.90;99.90;;;;;;5037783;28;20449;-87
2021/11/20 03:47:10;;;;;;;23.90;18.47;;;7.90;99.90;;;;;;5074404;28;20471;-87
2021/11/20 03:49:36;;;;;;;24.83;18.60;;;7.90;99.90;;;;;;5058043;28;20441;-88
2021/11/20 03:52:04;;;;;;;26.67;18.43;;;7.90;99.90;;;;;;5038468;28;21091;-87
2021/11/20 03:54:32;;;;;;;24.63;18.53;;;8.00;99.90;;;;;;5042682;28;20448;-87
2021/11/20 03:56:59;;;;;;;24.80;18.63;;;7.90;99.90;;;;;;5052620;28;20445;-87
2021/11/20 03:59:26;;;;;;;21.60;17.10;;;8.00;99.90;;;;;;5036956;28;20453;-87
2021/11/20 04:01:53;;;;;;;26.13;18.50;;;8.00;99.90;;;;;;5037841;28;21757;-87
2021/11/20 04:04:20;;;;;;;23.30;17.20;;;8.00;99.90;;;;;;5054769;28;20451;-86
2021/11/20 04:06:47;;;;;;;22.57;16.90;;;8.00;99.90;;;;;;5038426;28;20484;-86
2021/11/20 04:09:14;;;;;;;25.00;17.83;;;8.00;99.90;;;;;;5045961;28;20449;-86
2021/11/20 04:11:44;;;;;;;26.43;18.40;;;8.10;99.90;;;;;;5053213;28;20514;-86
2021/11/20 04:14:12;;;;;;;21.67;15.57;;;8.10;99.90;;;;;;5055434;28;20510;-87
2021/11/20 04:16:39;;;;;;;26.53;17.73;;;8.00;99.90;;;;;;5044633;28;20466;-87
2021/11/20 04:19:06;;;;;;;26.30;17.20;;;8.00;99.90;;;;;;5038907;28;20464;-87
2021/11/20 04:21:33;;;;;;;24.03;16.60;;;8.00;99.90;;;;;;5046938;28;20444;-86
2021/11/20 04:24:01;;;;;;;25.60;17.33;;;8.00;99.90;;;;;;5051225;28;20453;-87
2021/11/20 04:26:29;;;;;;;23.80;17.57;;;8.00;99.90;;;;;;5037429;28;20568;-87
2021/11/20 04:28:58;;;;;;;22.37;17.80;;;8.00;99.90;;;;;;5034405;28;20460;-87
2021/11/20 04:31:25;;;;;;;20.83;16.63;;;8.00;99.90;;;;;;5033998;28;20449;-86
2021/11/20 04:33:55;;;;;;;22.77;15.83;;;8.00;99.90;;;;;;5042996;28;20452;-86
2021/11/20 04:36:22;;;;;;;24.03;17.07;;;8.00;99.90;;;;;;5074735;28;20467;-87
2021/11/20 04:38:49;;;;;;;23.47;17.23;;;8.00;99.90;;;;;;5053723;28;20438;-86
2021/11/20 04:41:17;;;;;;;23.50;17.53;;;7.90;99.90;;;;;;5040602;28;20449;-87
2021/11/20 04:43:45;;;;;;;20.97;15.50;;;7.90;99.90;;;;;;5052060;28;20464;-87
2021/11/20 04:46:15;;;;;;;23.10;17.07;;;7.90;99.90;;;;;;5052617;28;21068;-87
2021/11/20 04:48:41;;;;;;;21.67;16.37;;;8.00;99.90;;;;;;5044863;28;20514;-87
2021/11/20 04:51:09;;;;;;;23.90;16.80;;;8.00;99.90;;;;;;5058428;28;20482;-87
2021/11/20 04:53:38;;;;;;;20.73;15.33;;;8.00;99.90;;;;;;5046336;28;20453;-87
2021/11/20 04:56:06;;;;;;;21.17;15.80;;;8.00;99.90;;;;;;5036306;28;20468;-87
2021/11/20 04:58:33;;;;;;;20.93;15.70;;;8.00;99.90;;;;;;5044536;28;20461;-86
2021/11/20 05:01:00;;;;;;;19.83;14.23;;;8.00;99.90;;;;;;5034551;28;20454;-86
2021/11/20 05:03:29;;;;;;;20.50;16.20;;;8.00;99.90;;;;;;5043020;28;20454;-87
2021/11/20 05:05:57;;;;;;;22.90;17.17;;;8.00;99.90;;;;;;5053503;28;20480;-87
2021/11/20 05:08:24;;;;;;;20.47;15.27;;;7.90;99.90;;;;;;5069857;28;20451;-85
2021/11/20 05:10:52;;;;;;;22.53;15.97;;;7.90;99.90;;;;;;5075417;28;20452;-87
2021/11/20 05:13:20;;;;;;;19.57;14.80;;;7.90;99.90;;;;;;5064833;28;20456;-86
2021/11/20 05:15:49;;;;;;;22.23;16.60;;;8.00;99.90;;;;;;5044165;28;20469;-87
2021/11/20 05:18:16;;;;;;;20.50;14.50;;;8.00;99.90;;;;;;5048457;28;20456;-87
2021/11/20 05:20:45;;;;;;;29.00;17.40;;;8.00;99.90;;;;;;5048732;28;20440;-87
2021/11/20 05:23:14;;;;;;;22.60;15.73;;;8.00;99.90;;;;;;5053645;28;20452;-87
2021/11/20 05:25:41;;;;;;;22.10;15.83;;;7.90;99.90;;;;;;5039896;28;20484;-88
2021/11/20 05:28:09;;;;;;;21.23;15.60;;;7.90;99.90;;;;;;5050572;28;20452;-87
2021/11/20 05:30:39;;;;;;;19.20;14.73;;;7.90;99.90;;;;;;5053405;28;20452;-88
2021/11/20 05:33:09;;;;;;;22.70;16.20;;;7.90;99.90;;;;;;5051045;28;20796;-88
2021/11/20 05:35:37;;;;;;;21.63;16.87;;;7.90;99.90;;;;;;5046839;28;20467;-88
2021/11/20 05:38:06;;;;;;;24.53;18.77;;;7.90;99.90;;;;;;5053565;28;20535;-88
2021/11/20 05:40:33;;;;;;;21.53;14.53;;;7.90;99.90;;;;;;5052943;28;20432;-88
2021/11/20 05:43:03;;;;;;;21.17;16.07;;;7.90;99.90;;;;;;5042781;28;20477;-88
2021/11/20 05:45:35;;;;;;;19.70;15.20;;;7.90;99.90;;;;;;5033198;28;20465;-88
2021/11/20 05:48:02;;;;;;;24.00;17.90;;;7.90;99.90;;;;;;5033484;28;20434;-88
2021/11/20 05:50:29;;;;;;;23.13;15.00;;;7.90;99.90;;;;;;5043727;28;20459;-89
2021/11/20 05:52:57;;;;;;;19.67;15.60;;;7.80;99.90;;;;;;5048609;28;20453;-88
2021/11/20 05:55:28;;;;;;;22.47;16.73;;;7.80;99.90;;;;;;5045475;28;20558;-88
2021/11/20 05:57:56;;;;;;;23.43;15.47;;;7.80;99.90;;;;;;5052674;28;20877;-89
2021/11/20 06:00:26;;;;;;;20.80;15.27;;;7.80;99.90;;;;;;5055201;28;20448;-89
2021/11/20 06:02:55;;;;;;;18.17;15.00;;;7.80;99.90;;;;;;5053552;28;20441;-88
2021/11/20 06:05:23;;;;;;;20.60;15.80;;;7.80;99.90;;;;;;5058441;28;20475;-89
2021/11/20 06:07:50;;;;;;;21.53;17.17;;;7.90;99.90;;;;;;5061733;28;20482;-88
2021/11/20 06:10:17;;;;;;;21.30;15.40;;;7.80;99.90;;;;;;5067304;28;20535;-88
2021/11/20 06:12:45;;;;;;;24.87;17.33;;;7.80;99.90;;;;;;5080097;28;20432;-90
2021/11/20 06:15:12;;;;;;;22.00;16.07;;;7.90;99.90;;;;;;5073580;28;20528;-88
2021/11/20 06:17:40;;;;;;;23.40;17.00;;;7.90;99.90;;;;;;5051099;28;20961;-88
2021/11/20 06:20:08;;;;;;;23.90;17.00;;;7.90;99.90;;;;;;5049548;28;20443;-89
2021/11/20 06:22:35;;;;;;;22.17;17.67;;;7.80;99.90;;;;;;5054867;28;20447;-88
2021/11/20 06:25:03;;;;;;;22.00;15.33;;;7.80;99.90;;;;;;5051984;28;20560;-88
2021/11/20 06:27:30;;;;;;;23.60;16.53;;;7.80;99.90;;;;;;5052694;28;20468;-88
2021/11/20 06:30:00;;;;;;;25.90;16.80;;;7.80;99.90;;;;;;5080471;28;20436;-88
2021/11/20 06:32:27;;;;;;;26.67;18.67;;;7.80;99.90;;;;;;5080473;28;20424;-88
2021/11/20 06:34:55;;;;;;;21.00;16.53;;;7.80;99.90;;;;;;5067738;28;20464;-89
2021/11/20 06:37:22;;;;;;;23.57;16.90;;;7.90;99.90;;;;;;5051997;28;20445;-88
2021/11/20 06:39:49;;;;;;;24.53;18.10;;;7.90;99.90;;;;;;5049099;28;20452;-88
2021/11/20 06:42:16;;;;;;;25.87;17.27;;;7.90;99.90;;;;;;5058668;28;20436;-88
2021/11/20 06:44:43;;;;;;;22.80;17.40;;;7.90;99.90;;;;;;5060109;28;20459;-88
2021/11/20 06:47:11;;;;;;;27.03;18.10;;;7.90;99.90;;;;;;5057557;28;20856;-88
2021/11/20 06:49:38;;;;;;;24.40;15.20;;;7.90;99.90;;;;;;5054682;28;20449;-88
2021/11/20 06:52:05;;;;;;;22.80;17.00;;;7.80;99.90;;;;;;5046674;28;20531;-88
2021/11/20 06:54:32;;;;;;;18.60;14.50;;;7.90;99.90;;;;;;5038992;28;20528;-88
2021/11/20 06:57:07;;;;;;;24.30;17.37;;;7.90;99.90;;;;;;5056669;28;20447;-88
2021/11/20 07:02:30;;;;;;;24.33;15.90;;;7.90;99.90;;;;;;5052471;28;20479;-88
2021/11/20 07:04:57;;;;;;;23.40;16.70;;;7.90;99.90;;;;;;5048130;28;20429;-89
2021/11/20 07:07:25;;;;;;;22.17;17.53;;;7.90;99.90;;;;;;5057468;28;20477;-88
2021/11/20 07:09:52;;;;;;;22.60;16.90;;;7.90;99.90;;;;;;5037245;28;20465;-88
2021/11/20 07:12:19;;;;;;;23.87;17.33;;;7.90;99.90;;;;;;5037004;28;20831;-89
2021/11/20 07:14:46;;;;;;;21.50;16.53;;;8.00;99.90;;;;;;5039454;28;20443;-89
2021/11/20 07:17:13;;;;;;;24.40;18.30;;;8.00;99.90;;;;;;5048261;28;20455;-89
2021/11/20 07:19:41;;;;;;;22.20;18.27;;;8.00;99.90;;;;;;5056434;28;20452;-89
2021/11/20 07:22:08;;;;;;;21.97;16.80;;;8.10;99.90;;;;;;5048223;28;20906;-89
2021/11/20 07:24:35;;;;;;;24.57;17.40;;;8.00;99.90;;;;;;5057633;28;20444;-88
2021/11/20 07:27:02;;;;;;;24.40;18.13;;;8.00;99.90;;;;;;5078761;28;20484;-89
2021/11/20 07:29:29;;;;;;;28.37;18.10;;;8.00;99.90;;;;;;5063522;28;20448;-89
2021/11/20 07:31:56;;;;;;;23.20;16.77;;;8.10;99.90;;;;;;5058098;28;22275;-88
2021/11/20 07:34:23;;;;;;;25.13;19.30;;;8.10;99.90;;;;;;5059548;28;20437;-89
2021/11/20 07:36:52;;;;;;;22.23;17.33;;;8.10;99.90;;;;;;5058286;28;20992;-89
2021/11/20 07:39:19;;;;;;;28.00;19.67;;;8.10;99.90;;;;;;5048427;28;20551;-89
2021/11/20 07:41:47;;;;;;;31.23;19.60;;;8.20;99.90;;;;;;5050473;28;20453;-89
2021/11/20 07:44:15;;;;;;;22.87;17.70;;;8.20;99.90;;;;;;5058956;28;20449;-89
2021/11/20 07:46:42;;;;;;;30.70;18.00;;;8.20;99.90;;;;;;5059738;28;20473;-89
2021/11/20 07:49:09;;;;;;;28.63;20.07;;;8.20;99.90;;;;;;5059562;28;20452;-87
2021/11/20 07:51:36;;;;;;;26.13;19.63;;;8.20;99.90;;;;;;5055704;28;20437;-89
2021/11/20 07:54:05;;;;;;;26.10;19.00;;;8.20;99.90;;;;;;5045975;28;20437;-88
2021/11/20 07:56:33;;;;;;;26.50;17.33;;;8.30;99.90;;;;;;5043191;28;20500;-88
2021/11/20 07:59:00;;;;;;;27.17;20.03;;;8.30;99.90;;;;;;5041463;28;20507;-89
2021/11/20 08:01:27;;;;;;;34.23;21.00;;;8.30;99.90;;;;;;5048409;28;20577;-89
2021/11/20 08:03:55;;;;;;;26.63;18.73;;;8.40;99.90;;;;;;5058325;28;20459;-89
2021/11/20 08:06:22;;;;;;;27.90;18.97;;;8.40;99.90;;;;;;5066136;28;20489;-90
2021/11/20 08:08:49;;;;;;;29.33;19.67;;;8.40;99.90;;;;;;5038772;28;20461;-89
2021/11/20 08:11:17;;;;;;;27.17;18.90;;;8.40;99.90;;;;;;5043569;28;20439;-89
2021/11/20 08:13:44;;;;;;;28.07;18.83;;;8.40;99.90;;;;;;5059694;28;20467;-88
2021/11/20 08:16:11;;;;;;;29.83;22.27;;;8.40;99.90;;;;;;5042553;28;20456;-89
2021/11/20 08:18:38;;;;;;;24.93;18.73;;;8.50;99.90;;;;;;5069845;28;20455;-88
2021/11/20 08:21:06;;;;;;;30.87;20.00;;;8.60;99.90;;;;;;5077621;28;20444;-89
2021/11/20 08:23:33;;;;;;;25.70;18.80;;;8.60;99.90;;;;;;5069432;28;20944;-89
2021/11/20 08:26:00;;;;;;;27.13;19.57;;;8.60;99.90;;;;;;5058015;28;20468;-89
2021/11/20 08:28:29;;;;;;;25.07;18.70;;;8.60;99.90;;;;;;5042852;28;20497;-89
2021/11/20 08:30:57;;;;;;;25.63;17.87;;;8.70;99.90;;;;;;5052153;28;20437;-89
2021/11/20 08:33:24;;;;;;;25.10;19.00;;;8.70;99.90;;;;;;5046278;28;20442;-89
2021/11/20 08:35:51;;;;;;;29.17;20.07;;;8.70;99.90;;;;;;5057106;28;20479;-88
2021/11/20 08:38:19;;;;;;;32.10;20.50;;;8.70;99.90;;;;;;5060544;28;20432;-88
2021/11/20 08:40:47;;;;;;;26.90;19.67;;;8.80;99.90;;;;;;5045835;28;20492;-88
2021/11/20 08:43:16;;;;;;;25.00;19.40;;;8.80;99.90;;;;;;5043023;28;20448;-90
2021/11/20 08:45:48;;;;;;;23.70;18.63;;;8.80;99.90;;;;;;5044241;28;20465;-89
2021/11/20 08:48:16;;;;;;;29.80;20.33;;;8.80;99.90;;;;;;5052631;28;20593;-89
2021/11/20 08:50:49;;;;;;;29.03;19.40;;;8.80;99.90;;;;;;5075550;28;20475;-91
2021/11/20 08:58:51;;;;;;;26.70;19.57;;;8.90;99.90;;;;;;5036870;28;20828;-91
2021/11/20 09:01:23;;;;;;;22.63;16.60;;;8.90;99.90;;;;;;5047750;28;20454;-91
2021/11/20 09:04:20;;;;;;;26.30;17.83;;;8.90;99.90;;;;;;5047324;28;20453;-90
2021/11/20 09:10:09;;;;;;;27.13;19.47;;;8.90;99.90;;;;;;5026634;28;20473;-91
2021/11/20 09:12:55;;;;;;;25.40;17.77;;;9.00;99.90;;;;;;5048736;28;20449;-90
2021/11/20 09:18:27;;;;;;;29.13;19.50;;;9.20;99.90;;;;;;5047585;28;20430;-88
2021/11/20 09:21:08;;;;;;;21.60;16.17;;;9.20;99.90;;;;;;5067794;28;20444;-90
2021/11/20 09:23:42;;;;;;;24.10;19.83;;;9.30;99.90;;;;;;5072939;28;20432;-90
2021/11/20 09:29:09;;;;;;;27.23;17.97;;;9.40;99.90;;;;;;5045119;28;20479;-90
2021/11/20 09:34:16;;;;;;;25.83;19.03;;;9.40;99.90;;;;;;5061886;28;20468;-91
2021/11/20 09:36:44;;;;;;;22.20;16.23;;;9.50;99.90;;;;;;5062113;28;20496;-90
2021/11/20 09:42:33;;;;;;;27.53;18.43;;;9.50;99.90;;;;;;5068661;28;20431;-80
2021/11/20 09:45:05;;;;;;;27.00;19.07;;;9.50;99.90;;;;;;5064405;28;20547;-81
2021/11/20 09:47:35;;;;;;;25.67;17.37;;;9.60;99.90;;;;;;5063896;28;20479;-80
2021/11/20 09:50:09;;;;;;;23.10;17.70;;;9.70;99.90;;;;;;5068313;28;20429;-81
2021/11/20 09:52:36;;;;;;;21.73;17.30;;;9.70;99.90;;;;;;5064874;28;20447;-81
2021/11/20 09:55:05;;;;;;;25.60;18.60;;;9.80;99.90;;;;;;5069484;28;20512;-88
2021/11/20 09:57:40;;;;;;;23.40;16.33;;;9.80;99.90;;;;;;5068267;28;20440;-89
2021/11/20 10:00:30;;;;;;;23.67;17.93;;;9.70;99.90;;;;;;5072074;28;20431;-89
2021/11/20 10:03:34;;;;;;;21.00;16.60;;;9.70;99.90;;;;;;5079414;28;20452;-88
2021/11/20 10:06:11;;;;;;;21.87;15.97;;;9.80;99.90;;;;;;5066499;28;20467;-88
2021/11/20 10:08:42;;;;;;;23.13;16.17;;;9.80;99.90;;;;;;5086017;28;20471;-89
2021/11/20 10:11:32;;;;;;;22.17;16.47;;;9.80;99.90;;;;;;5099970;28;20446;-92
2021/11/20 10:14:02;;;;;;;19.80;14.13;;;9.80;99.90;;;;;;5102053;28;20420;-91
2021/11/20 10:16:48;;;;;;;18.83;15.77;;;9.80;99.90;;;;;;5099459;28;20487;-92
2021/11/20 10:19:25;;;;;;;20.77;15.40;;;9.90;99.90;;;;;;5080909;28;20484;-90
2021/11/20 10:22:02;;;;;;;20.93;15.20;;;10.00;99.90;;;;;;5052729;28;20512;-90
2021/11/20 10:24:48;;;;;;;23.57;16.30;;;10.00;99.90;;;;;;5069913;28;20447;-92
2021/11/20 10:27:41;;;;;;;20.93;14.83;;;10.00;99.90;;;;;;5072702;28;20488;-92
2021/11/20 10:30:25;;;;;;;19.50;13.90;;;10.10;99.90;;;;;;5062505;28;20410;-89
2021/11/20 10:32:56;;;;;;;24.67;14.90;;;10.10;99.90;;;;;;5072978;28;20484;-90
2021/11/20 10:35:30;;;;;;;19.50;15.10;;;10.10;99.90;;;;;;5080670;28;20528;-90
2021/11/20 10:38:11;;;;;;;21.07;14.33;;;10.10;99.90;;;;;;5077962;28;20510;-87
2021/11/20 10:40:43;;;;;;;18.70;13.27;;;10.20;99.90;;;;;;5079297;28;20467;-89
2021/11/20 10:43:19;;;;;;;18.33;12.30;;;10.20;99.90;;;;;;5056310;28;20481;-89
2021/11/20 10:45:50;;;;;;;16.93;12.27;;;10.30;99.90;;;;;;5070391;28;20462;-89
2021/11/20 10:48:32;;;;;;;18.80;12.57;;;10.30;99.90;;;;;;5075557;28;20476;-88
2021/11/20 10:51:43;;;;;;;16.30;11.53;;;10.30;99.90;;;;;;5063351;28;20936;-89
2021/11/20 10:54:59;;;;;;;15.37;10.30;;;10.20;99.90;;;;;;5043927;28;20440;-89
2021/11/20 10:57:55;;;;;;;16.90;12.00;;;10.10;99.90;;;;;;5082672;28;20420;-90
2021/11/20 11:00:32;;;;;;;16.50;11.40;;;10.10;99.90;;;;;;5063654;28;20441;-88
2021/11/20 11:03:43;;;;;;;13.73;9.70;;;10.10;99.90;;;;;;5073080;28;20448;-88
2021/11/20 11:06:41;;;;;;;16.27;10.30;;;10.00;99.90;;;;;;5086884;28;20494;-89
2021/11/20 11:09:24;;;;;;;17.70;10.07;;;10.10;99.90;;;;;;5047826;28;20508;-89
2021/11/20 11:11:58;;;;;;;15.53;10.93;;;10.10;99.90;;;;;;5077795;28;20444;-89
2021/11/20 11:15:01;;;;;;;12.87;9.97;;;10.10;99.90;;;;;;5086383;28;20442;-89
2021/11/20 11:17:53;;;;;;;12.30;8.90;;;10.20;99.90;;;;;;5086618;28;20452;-89
2021/11/20 11:20:31;;;;;;;10.10;8.77;;;10.20;99.90;;;;;;5078632;28;20436;-88
2021/11/20 11:23:06;;;;;;;11.00;9.03;;;10.20;99.90;;;;;;5076067;28;20535;-87
2021/11/20 11:25:49;;;;;;;11.40;8.67;;;10.10;99.90;;;;;;5078805;28;20874;-87
2021/11/20 11:28:35;;;;;;;11.30;8.20;;;10.20;99.90;;;;;;5072780;28;20469;-87
2021/11/20 11:31:18;;;;;;;10.00;8.40;;;10.10;99.90;;;;;;5078032;28;20441;-88
2021/11/20 11:33:48;;;;;;;10.63;7.93;;;10.10;99.90;;;;;;5074730;28;20486;-89
2021/11/20 11:36:22;;;;;;;10.80;8.50;;;10.10;99.90;;;;;;5074338;28;20480;-89
2021/11/20 11:39:15;;;;;;;8.87;7.60;;;10.20;99.90;;;;;;5085094;28;20880;-89
2021/11/20 11:41:52;;;;;;;11.20;8.40;;;10.20;99.90;;;;;;5077119;28;20437;-89
2021/11/20 11:44:32;;;;;;;10.20;8.20;;;10.20;99.90;;;;;;5075965;28;20448;-88
2021/11/20 11:47:03;;;;;;;8.83;7.93;;;10.20;99.90;;;;;;5076007;28;20967;-89
2021/11/20 11:49:55;;;;;;;8.80;7.23;;;10.20;99.90;;;;;;5079371;28;20543;-89
2021/11/20 11:52:44;;;;;;;7.73;6.90;;;10.20;99.90;;;;;;5074325;28;20444;-89
2021/11/20 11:55:44;;;;;;;11.63;7.20;;;10.10;99.90;;;;;;5087857;28;21162;-88
2021/11/20 11:58:56;;;;;;;7.73;6.90;;;10.20;99.90;;;;;;5075987;28;20514;-89
2021/11/20 12:02:00;;;;;;;9.33;8.23;;;10.30;99.90;;;;;;5072422;28;20437;-90
2021/11/20 12:04:38;;;;;;;10.03;8.77;;;10.20;99.90;;;;;;5048980;28;20918;-89
2021/11/20 12:07:30;;;;;;;10.30;7.90;;;10.20;99.90;;;;;;5075481;28;20974;-90
2021/11/20 12:10:31;;;;;;;8.20;7.40;;;10.20;99.90;;;;;;5078736;28;20468;-89
2021/11/20 12:13:10;;;;;;;8.07;6.60;;;10.20;99.90;;;;;;5069775;28;20522;-89
2021/11/20 12:15:47;;;;;;;10.20;8.93;;;10.30;99.90;;;;;;5082833;28;20467;-89
2021/11/20 12:18:29;;;;;;;12.23;8.73;;;10.30;99.90;;;;;;5065968;28;20530;-90
2021/11/20 12:21:01;;;;;;;11.63;10.30;;;10.40;99.90;;;;;;5078673;28;20450;-90
2021/11/20 12:23:37;;;;;;;12.30;10.47;;;10.40;99.90;;;;;;5086012;28;20442;-89
2021/11/20 12:26:19;;;;;;;14.10;11.37;;;10.40;99.90;;;;;;5088442;28;20470;-89
2021/11/20 12:29:41;;;;;;;11.17;9.93;;;10.30;99.90;;;;;;5073560;28;20479;-89
2021/11/20 12:32:31;;;;;;;9.90;8.97;;;10.30;99.90;;;;;;5072181;28;20523;-90
2021/11/20 12:35:12;;;;;;;8.30;7.43;;;10.40;99.90;;;;;;5073682;28;20472;-87
2021/11/20 12:38:00;;;;;;;8.60;7.70;;;10.40;99.90;;;;;;5076144;28;20435;-87
2021/11/20 12:40:49;;;;;;;9.63;7.10;;;10.30;99.90;;;;;;5076934;28;20428;-86
2021/11/20 12:43:33;;;;;;;7.60;6.90;;;10.20;99.90;;;;;;5084195;28;20480;-85
2021/11/20 12:46:27;;;;;;;6.93;6.23;;;10.20;99.90;;;;;;5080459;28;20460;-88
2021/11/20 12:49:15;;;;;;;8.33;7.33;;;10.30;99.90;;;;;;5084834;28;20500;-85
2021/11/20 12:51:55;;;;;;;10.10;7.10;;;10.30;99.90;;;;;;5064141;28;20451;-87
2021/11/20 12:54:27;;;;;;;8.90;7.57;;;10.30;99.90;;;;;;5077811;28;20708;-89
2021/11/20 12:57:10;;;;;;;9.20;8.17;;;10.30;99.90;;;;;;5082492;28;20459;-89
2021/11/20 12:59:44;;;;;;;9.57;8.30;;;10.20;99.90;;;;;;5077739;28;20536;-90
2021/11/20 13:02:29;;;;;;;9.20;7.37;;;10.10;99.90;;;;;;5080512;28;20408;-87
2021/11/20 13:04:57;;;;;;;12.10;8.33;;;10.20;99.90;;;;;;5088519;28;20448;-85
2021/11/20 13:07:28;;;;;;;12.63;9.43;;;10.10;99.90;;;;;;5080877;28;20440;-85
2021/11/20 13:10:00;;;;;;;9.73;8.00;;;10.10;99.90;;;;;;5081911;28;20540;-85
2021/11/20 13:12:32;;;;;;;9.33;8.00;;;10.20;99.90;;;;;;5082404;28;20429;-86
2021/11/20 13:15:23;;;;;;;10.80;8.50;;;10.10;99.90;;;;;;5076977;28;20449;-91
2021/11/20 13:17:55;;;;;;;11.70;9.00;;;10.10;99.90;;;;;;5065485;28;20444;-86
2021/11/20 13:20:26;;;;;;;12.40;8.77;;;10.10;99.90;;;;;;5075050;28;20428;-83
2021/11/20 13:23:07;;;;;;;9.50;7.43;;;10.10;99.90;;;;;;5064288;28;20447;-82
2021/11/20 13:25:45;;;;;;;11.07;8.93;;;10.10;99.90;;;;;;5064957;28;20464;-81
2021/11/20 13:28:13;;;;;;;13.90;9.17;;;10.10;99.90;;;;;;5057545;28;20490;-81